Everglades National Park, Florida
Current Conditions -  °F | °C
As of 3:58 PM on Tuesday 25 Nov 2014 (Local Time) from KHST Reporting Station
Clear Clear  
Wind Chill: 81°   Ceiling: Unl
Heat Index: 87°   Visibility: 10mi
Dew Point: 74°   Wind: 14mph
Humidity: 78%   Direction: 140°SE
Pressure: 29.92"   Gusts: 18mph
Location:  25.4848°N, 80.5094°W
Report Text: KHST 252058Z AUTO 14012G16KT 10SM CLR 27/23 A2992 RMK AO2 CIG 019 RWY23 SLP135 T02740233 56016
Loading
Personal Weather Stations






























Interactive Weather Map New forecast layout! Learn more

10-Day Weather Forecast

Advertisements
Track Severe Weather on mobile